Flight Briefing for CPX773

Departure Arrival
Li├Ęge Airport (EBLG)
Click to view FAA NOTAMS
Kuwait International Airport (OKBK)
Click to view FAA NOTAMS
Departure Time Arrival Time
N/A N/A
Aircraft Distance
B767-300BDSF 2299nm
Departure METAR Arrival METAR
EBLG 200820Z 20005KT 150V230 CAVOK 07/03 Q1034 NOSIG OKBK 200800Z 00000KT 7000 NSC 24/04 Q1016 NOSIG
Suggested Route
TUTOV FFM L984 OSBIT UZ205 LULAR Z205 ABUDO Z37 GIMBO INVED M747 CND L5 ADINA L851 KUGOS UW704 SIN CRM UM688 AD AD2D


View recent IFR Routes data
Notes



Charts and Procedures

Charts for EBLG
No chart available
Charts for OKBK
No chart available

Windy.com Weather Map